SWA2306 KSMF-KLGB
Flight info
| Callsign | SWA2306 |
|---|---|
| Flight time | 1h 1m |
| Altitude | 35000 |
| Route | FTHIL3 FRA REBRG PCIFC3 |
| Aircraft | B737/M-SDE2E3GIJ4RWZ/LB1D1 |
Departure
| Time | 2026-04-29 17:45 |
|---|---|
| Airport | Sacramento International Airport (KSMF) |
Arrival
| Time | 2026-04-29 18:47 |
|---|---|
| Airport | Long Beach International Airport (KLGB) |
| Time | Latitude | Longitude | Altitude | Speed | Heading |
|---|---|---|---|---|---|
| 2026-04-29 17:27 | 38.69514 | -121.59347 | 22 ft | 0 kts | 16° |
| 2026-04-29 17:37 | 38.69510 | -121.59349 | 24 ft | 3 kts | 16° |
| 2026-04-29 17:37 | 38.69489 | -121.59356 | 24 ft | 4 kts | 4° |
| 2026-04-29 17:37 | 38.69466 | -121.59350 | 22 ft | 4 kts | 309° |
| 2026-04-29 17:38 | 38.69459 | -121.59328 | 24 ft | 0 kts | 271° |
| 2026-04-29 17:41 | 38.69459 | -121.59338 | 25 ft | 3 kts | 271° |
| 2026-04-29 17:41 | 38.69460 | -121.59393 | 22 ft | 9 kts | 271° |
| 2026-04-29 17:41 | 38.69461 | -121.59499 | 22 ft | 14 kts | 271° |
| 2026-04-29 17:41 | 38.69463 | -121.59649 | 22 ft | 19 kts | 271° |
| 2026-04-29 17:42 | 38.69472 | -121.59830 | 22 ft | 21 kts | 300° |
| 2026-04-29 17:42 | 38.69607 | -121.59865 | 22 ft | 20 kts | 0° |
| 2026-04-29 17:42 | 38.69743 | -121.59863 | 22 ft | 18 kts | 1° |
| 2026-04-29 17:42 | 38.69863 | -121.59861 | 24 ft | 17 kts | 1° |
| 2026-04-29 17:43 | 38.69985 | -121.59859 | 24 ft | 18 kts | 1° |
| 2026-04-29 17:43 | 38.70123 | -121.59856 | 25 ft | 23 kts | 1° |
| 2026-04-29 17:43 | 38.70301 | -121.59853 | 22 ft | 27 kts | 1° |
| 2026-04-29 17:43 | 38.70481 | -121.59850 | 23 ft | 25 kts | 1° |
| 2026-04-29 17:44 | 38.70650 | -121.59847 | 24 ft | 23 kts | 1° |
| 2026-04-29 17:44 | 38.70723 | -121.59989 | 22 ft | 22 kts | 274° |
| 2026-04-29 17:44 | 38.70683 | -121.60112 | 22 ft | 10 kts | 181° |
| 2026-04-29 17:44 | 38.70619 | -121.60111 | 23 ft | 16 kts | 181° |
| 2026-04-29 17:45 | 38.70223 | -121.60122 | 29 ft | 97 kts | 181° |
| 2026-04-29 17:45 | 38.69316 | -121.60137 | 46 ft | 161 kts | 182° |
| 2026-04-29 17:45 | 38.68157 | -121.60163 | 633 ft | 177 kts | 176° |
| 2026-04-29 17:45 | 38.66944 | -121.59616 | 1215 ft | 199 kts | 141° |
| 2026-04-29 17:46 | 38.66039 | -121.58183 | 1706 ft | 216 kts | 117° |
| 2026-04-29 17:46 | 38.65558 | -121.56988 | 1999 ft | 233 kts | 116° |
| 2026-04-29 17:46 | 38.64774 | -121.55108 | 2613 ft | 247 kts | 118° |
| 2026-04-29 17:46 | 38.63830 | -121.53190 | 3244 ft | 262 kts | 122° |
| 2026-04-29 17:47 | 38.62821 | -121.51204 | 4011 ft | 270 kts | 121° |
| 2026-04-29 17:47 | 38.61819 | -121.49176 | 4898 ft | 273 kts | 121° |
| 2026-04-29 17:47 | 38.60799 | -121.47122 | 5829 ft | 275 kts | 121° |
| 2026-04-29 17:47 | 38.59759 | -121.45047 | 6748 ft | 278 kts | 122° |
| 2026-04-29 17:48 | 38.58704 | -121.42959 | 7703 ft | 281 kts | 122° |
| 2026-04-29 17:48 | 38.57632 | -121.40853 | 8648 ft | 285 kts | 122° |
| 2026-04-29 17:48 | 38.56539 | -121.38714 | 9625 ft | 289 kts | 122° |
| 2026-04-29 17:48 | 38.55426 | -121.36546 | 10458 ft | 298 kts | 122° |
| 2026-04-29 17:49 | 38.54232 | -121.34222 | 10717 ft | 327 kts | 122° |
| 2026-04-29 17:49 | 38.52939 | -121.31713 | 11192 ft | 345 kts | 122° |
| 2026-04-29 17:49 | 38.51603 | -121.29130 | 11993 ft | 351 kts | 122° |
| 2026-04-29 17:49 | 38.50245 | -121.26508 | 12861 ft | 357 kts | 122° |
| 2026-04-29 17:50 | 38.48862 | -121.23841 | 13703 ft | 363 kts | 122° |
| 2026-04-29 17:50 | 38.47475 | -121.21170 | 14510 ft | 369 kts | 122° |
| 2026-04-29 17:50 | 38.46049 | -121.18426 | 15324 ft | 374 kts | 122° |
| 2026-04-29 17:50 | 38.44601 | -121.15642 | 16150 ft | 379 kts | 122° |
| 2026-04-29 17:51 | 38.43127 | -121.12811 | 16958 ft | 385 kts | 122° |
| 2026-04-29 17:51 | 38.41633 | -121.09943 | 17751 ft | 391 kts | 122° |
| 2026-04-29 17:51 | 38.40115 | -121.07031 | 18520 ft | 397 kts | 122° |
| 2026-04-29 17:51 | 38.38571 | -121.04073 | 19200 ft | 403 kts | 121° |
| 2026-04-29 17:52 | 38.37004 | -121.01072 | 19851 ft | 410 kts | 121° |
| 2026-04-29 17:52 | 38.35953 | -120.99060 | 20288 ft | 414 kts | 121° |
| 2026-04-29 17:52 | 38.33797 | -120.94939 | 21176 ft | 422 kts | 120° |
| 2026-04-29 17:52 | 38.32158 | -120.91808 | 21823 ft | 428 kts | 120° |
| 2026-04-29 17:53 | 38.30495 | -120.88635 | 22455 ft | 434 kts | 119° |
| 2026-04-29 17:53 | 38.28808 | -120.85421 | 23085 ft | 439 kts | 119° |
| 2026-04-29 17:53 | 38.27100 | -120.82168 | 23699 ft | 445 kts | 118° |
| 2026-04-29 17:53 | 38.25370 | -120.78878 | 24228 ft | 449 kts | 118° |
| 2026-04-29 17:54 | 38.23624 | -120.75564 | 24812 ft | 452 kts | 118° |
| 2026-04-29 17:54 | 38.21860 | -120.72243 | 25389 ft | 456 kts | 121° |
| 2026-04-29 17:54 | 38.19736 | -120.69186 | 25902 ft | 467 kts | 134° |
| 2026-04-29 17:54 | 38.17165 | -120.66707 | 26411 ft | 475 kts | 146° |
| 2026-04-29 17:55 | 38.14209 | -120.64768 | 26905 ft | 481 kts | 156° |
| 2026-04-29 17:55 | 38.11082 | -120.63201 | 27468 ft | 483 kts | 158° |
| 2026-04-29 17:55 | 38.07929 | -120.61699 | 27970 ft | 487 kts | 158° |
| 2026-04-29 17:55 | 38.04739 | -120.60197 | 28444 ft | 490 kts | 159° |
| 2026-04-29 17:56 | 38.01532 | -120.58678 | 28901 ft | 494 kts | 158° |
| 2026-04-29 17:56 | 37.98301 | -120.57130 | 29364 ft | 497 kts | 158° |
| 2026-04-29 17:56 | 37.95063 | -120.55560 | 29831 ft | 499 kts | 158° |
| 2026-04-29 17:56 | 37.91856 | -120.53994 | 30296 ft | 500 kts | 158° |
| 2026-04-29 17:57 | 37.88596 | -120.52396 | 30650 ft | 503 kts | 158° |
| 2026-04-29 17:57 | 37.87150 | -120.51687 | 30798 ft | 505 kts | 158° |
| 2026-04-29 17:57 | 37.85698 | -120.50974 | 30947 ft | 506 kts | 158° |
| 2026-04-29 17:58 | 37.82406 | -120.49359 | 31277 ft | 509 kts | 158° |
| 2026-04-29 17:58 | 37.79095 | -120.47737 | 31574 ft | 511 kts | 158° |
| 2026-04-29 17:58 | 37.75779 | -120.46115 | 32033 ft | 510 kts | 158° |
| 2026-04-29 17:58 | 37.72482 | -120.44506 | 32548 ft | 507 kts | 158° |
| 2026-04-29 17:59 | 37.69198 | -120.42904 | 33043 ft | 505 kts | 158° |
| 2026-04-29 17:59 | 37.65920 | -120.41308 | 33469 ft | 504 kts | 158° |
| 2026-04-29 17:59 | 37.62639 | -120.39711 | 33868 ft | 504 kts | 158° |
| 2026-04-29 17:59 | 37.59367 | -120.38120 | 34148 ft | 506 kts | 158° |
| 2026-04-29 18:00 | 37.56078 | -120.36522 | 34511 ft | 505 kts | 159° |
| 2026-04-29 18:00 | 37.52812 | -120.34938 | 34968 ft | 500 kts | 159° |
| 2026-04-29 18:00 | 37.49558 | -120.33360 | 35134 ft | 503 kts | 159° |
| 2026-04-29 18:01 | 37.43054 | -120.30211 | 35120 ft | 502 kts | 159° |
| 2026-04-29 18:01 | 37.36586 | -120.27085 | 35074 ft | 493 kts | 159° |
| 2026-04-29 18:02 | 37.30165 | -120.23988 | 35131 ft | 496 kts | 159° |
| 2026-04-29 18:02 | 37.23703 | -120.20877 | 35140 ft | 499 kts | 159° |
| 2026-04-29 18:03 | 37.17216 | -120.17759 | 35149 ft | 499 kts | 159° |
| 2026-04-29 18:03 | 37.10771 | -120.14667 | 35136 ft | 498 kts | 159° |
| 2026-04-29 18:04 | 37.04302 | -120.11570 | 35124 ft | 496 kts | 159° |
| 2026-04-29 18:04 | 36.97926 | -120.08526 | 35131 ft | 486 kts | 159° |
| 2026-04-29 18:05 | 36.91611 | -120.05517 | 35146 ft | 485 kts | 159° |
| 2026-04-29 18:05 | 36.85303 | -120.02515 | 35137 ft | 485 kts | 159° |
| 2026-04-29 18:06 | 36.78999 | -119.99517 | 35153 ft | 484 kts | 159° |
| 2026-04-29 18:06 | 36.72698 | -119.96526 | 35142 ft | 484 kts | 159° |
| 2026-04-29 18:07 | 36.66448 | -119.93564 | 35142 ft | 484 kts | 159° |
| 2026-04-29 18:07 | 36.60153 | -119.90585 | 35153 ft | 484 kts | 159° |
| 2026-04-29 18:08 | 36.53857 | -119.87612 | 35126 ft | 484 kts | 159° |
| 2026-04-29 18:08 | 36.47560 | -119.84644 | 35129 ft | 483 kts | 159° |
| 2026-04-29 18:09 | 36.41278 | -119.81687 | 35143 ft | 483 kts | 160° |
| 2026-04-29 18:09 | 36.34987 | -119.78732 | 35134 ft | 483 kts | 160° |
| 2026-04-29 18:10 | 36.28700 | -119.75783 | 35131 ft | 483 kts | 160° |
| 2026-04-29 18:10 | 36.22415 | -119.72840 | 35145 ft | 482 kts | 160° |
| 2026-04-29 18:11 | 36.16137 | -119.69906 | 35143 ft | 482 kts | 160° |
| 2026-04-29 18:11 | 36.09898 | -119.66994 | 35126 ft | 481 kts | 160° |
| 2026-04-29 18:12 | 36.03640 | -119.64078 | 35127 ft | 480 kts | 160° |
| 2026-04-29 18:12 | 35.97163 | -119.62296 | 35131 ft | 477 kts | 178° |
| 2026-04-29 18:13 | 35.90599 | -119.62864 | 35129 ft | 472 kts | 192° |
| 2026-04-29 18:13 | 35.84126 | -119.64293 | 35124 ft | 471 kts | 192° |
| 2026-04-29 18:14 | 35.77658 | -119.65658 | 35128 ft | 471 kts | 191° |
| 2026-04-29 18:14 | 35.71181 | -119.66963 | 35132 ft | 470 kts | 190° |
| 2026-04-29 18:14 | 35.67957 | -119.67283 | 35109 ft | 472 kts | 179° |
| 2026-04-29 18:15 | 35.64650 | -119.66863 | 35139 ft | 472 kts | 169° |
| 2026-04-29 18:15 | 35.58518 | -119.64220 | 35146 ft | 471 kts | 156° |
| 2026-04-29 18:16 | 35.52572 | -119.60830 | 35130 ft | 470 kts | 155° |
| 2026-04-29 18:16 | 35.46640 | -119.57467 | 35125 ft | 468 kts | 156° |
| 2026-04-29 18:17 | 35.40716 | -119.54176 | 35121 ft | 466 kts | 156° |
| 2026-04-29 18:17 | 35.34800 | -119.50923 | 35118 ft | 465 kts | 158° |
| 2026-04-29 18:18 | 35.28910 | -119.47692 | 35101 ft | 463 kts | 158° |
| 2026-04-29 18:18 | 35.23045 | -119.44478 | 35111 ft | 461 kts | 158° |
| 2026-04-29 18:19 | 35.17245 | -119.41303 | 35110 ft | 459 kts | 158° |
| 2026-04-29 18:19 | 35.11423 | -119.38120 | 35113 ft | 457 kts | 158° |
| 2026-04-29 18:20 | 35.05623 | -119.34954 | 35098 ft | 455 kts | 160° |
| 2026-04-29 18:20 | 34.99848 | -119.31807 | 35100 ft | 454 kts | 160° |
| 2026-04-29 18:21 | 34.94083 | -119.28671 | 35111 ft | 453 kts | 160° |
| 2026-04-29 18:21 | 34.88339 | -119.25549 | 35094 ft | 451 kts | 163° |
| 2026-04-29 18:22 | 34.82600 | -119.22436 | 35105 ft | 450 kts | 163° |
| 2026-04-29 18:22 | 34.76875 | -119.19335 | 35101 ft | 450 kts | 163° |
| 2026-04-29 18:23 | 34.71217 | -119.16144 | 35095 ft | 453 kts | 160° |
| 2026-04-29 18:23 | 34.65639 | -119.12542 | 35094 ft | 454 kts | 159° |
| 2026-04-29 18:23 | 34.62844 | -119.10727 | 34697 ft | 458 kts | 159° |
| 2026-04-29 18:24 | 34.60023 | -119.08924 | 34046 ft | 458 kts | 159° |
| 2026-04-29 18:24 | 34.57196 | -119.07131 | 33193 ft | 459 kts | 158° |
| 2026-04-29 18:24 | 34.54367 | -119.05316 | 32307 ft | 461 kts | 157° |
| 2026-04-29 18:24 | 34.51532 | -119.03476 | 31413 ft | 463 kts | 156° |
| 2026-04-29 18:25 | 34.48703 | -119.01636 | 30807 ft | 459 kts | 156° |
| 2026-04-29 18:25 | 34.45901 | -118.99820 | 30342 ft | 452 kts | 155° |
| 2026-04-29 18:25 | 34.43160 | -118.98039 | 29708 ft | 447 kts | 154° |
| 2026-04-29 18:25 | 34.40442 | -118.96240 | 29119 ft | 442 kts | 154° |
| 2026-04-29 18:26 | 34.37764 | -118.94452 | 28460 ft | 438 kts | 154° |
| 2026-04-29 18:26 | 34.35114 | -118.92683 | 27875 ft | 433 kts | 154° |
| 2026-04-29 18:26 | 34.32486 | -118.90934 | 27260 ft | 428 kts | 154° |
| 2026-04-29 18:26 | 34.29890 | -118.89211 | 26681 ft | 423 kts | 155° |
| 2026-04-29 18:27 | 34.27319 | -118.87508 | 26100 ft | 419 kts | 155° |
| 2026-04-29 18:27 | 34.24770 | -118.85822 | 25530 ft | 415 kts | 155° |
| 2026-04-29 18:27 | 34.22210 | -118.84261 | 24959 ft | 408 kts | 162° |
| 2026-04-29 18:27 | 34.19557 | -118.83152 | 24468 ft | 401 kts | 166° |
| 2026-04-29 18:28 | 34.16907 | -118.82149 | 23906 ft | 398 kts | 166° |
| 2026-04-29 18:28 | 34.14270 | -118.81152 | 23257 ft | 396 kts | 166° |
| 2026-04-29 18:28 | 34.11692 | -118.80153 | 22632 ft | 393 kts | 166° |
| 2026-04-29 18:28 | 34.09101 | -118.79132 | 22040 ft | 389 kts | 165° |
| 2026-04-29 18:29 | 34.06537 | -118.78119 | 21477 ft | 385 kts | 166° |
| 2026-04-29 18:29 | 34.04817 | -118.77449 | 21089 ft | 383 kts | 166° |
| 2026-04-29 18:29 | 34.01477 | -118.76157 | 20355 ft | 379 kts | 166° |
| 2026-04-29 18:29 | 33.98972 | -118.75190 | 19798 ft | 376 kts | 166° |
| 2026-04-29 18:30 | 33.96479 | -118.74227 | 19240 ft | 374 kts | 166° |
| 2026-04-29 18:30 | 33.93998 | -118.73268 | 18667 ft | 373 kts | 166° |
| 2026-04-29 18:30 | 33.91531 | -118.72315 | 18056 ft | 372 kts | 166° |
| 2026-04-29 18:30 | 33.89073 | -118.71366 | 17460 ft | 369 kts | 165° |
| 2026-04-29 18:31 | 33.86670 | -118.70438 | 16869 ft | 366 kts | 165° |
| 2026-04-29 18:31 | 33.84245 | -118.69503 | 16253 ft | 365 kts | 165° |
| 2026-04-29 18:31 | 33.81838 | -118.68574 | 15690 ft | 362 kts | 165° |
| 2026-04-29 18:31 | 33.79453 | -118.67655 | 15136 ft | 359 kts | 165° |
| 2026-04-29 18:32 | 33.77085 | -118.66742 | 14590 ft | 356 kts | 165° |
| 2026-04-29 18:32 | 33.72338 | -118.65408 | 13606 ft | 343 kts | 176° |
| 2026-04-29 18:32 | 33.69982 | -118.65149 | 13180 ft | 338 kts | 177° |
| 2026-04-29 18:33 | 33.67651 | -118.64892 | 12787 ft | 336 kts | 176° |
| 2026-04-29 18:33 | 33.65326 | -118.64613 | 12396 ft | 336 kts | 176° |
| 2026-04-29 18:33 | 33.63788 | -118.64421 | 12153 ft | 336 kts | 176° |
| 2026-04-29 18:33 | 33.60743 | -118.63585 | 11609 ft | 341 kts | 154° |
| 2026-04-29 18:34 | 33.58921 | -118.61877 | 11247 ft | 332 kts | 133° |
| 2026-04-29 18:34 | 33.58444 | -118.61143 | 11112 ft | 328 kts | 124° |
| 2026-04-29 18:34 | 33.56720 | -118.57280 | 10519 ft | 306 kts | 117° |
| 2026-04-29 18:34 | 33.55794 | -118.55040 | 10181 ft | 294 kts | 118° |
| 2026-04-29 18:35 | 33.55177 | -118.53571 | 9967 ft | 292 kts | 118° |
| 2026-04-29 18:35 | 33.54255 | -118.51410 | 9603 ft | 290 kts | 118° |
| 2026-04-29 18:35 | 33.53335 | -118.49274 | 9273 ft | 287 kts | 118° |
| 2026-04-29 18:35 | 33.52449 | -118.47179 | 8943 ft | 284 kts | 113° |
| 2026-04-29 18:36 | 33.52071 | -118.44880 | 8618 ft | 281 kts | 92° |
| 2026-04-29 18:36 | 33.52030 | -118.42559 | 8304 ft | 277 kts | 91° |
| 2026-04-29 18:36 | 33.51990 | -118.40261 | 7989 ft | 275 kts | 91° |
| 2026-04-29 18:36 | 33.51940 | -118.37979 | 7678 ft | 273 kts | 91° |
| 2026-04-29 18:37 | 33.51885 | -118.35711 | 7374 ft | 271 kts | 91° |
| 2026-04-29 18:37 | 33.51858 | -118.33459 | 7057 ft | 269 kts | 84° |
| 2026-04-29 18:37 | 33.52348 | -118.31327 | 6792 ft | 264 kts | 68° |
| 2026-04-29 18:37 | 33.53026 | -118.29289 | 6524 ft | 261 kts | 68° |
| 2026-04-29 18:38 | 33.53694 | -118.27281 | 6242 ft | 258 kts | 68° |
| 2026-04-29 18:38 | 33.54345 | -118.25296 | 5971 ft | 253 kts | 68° |
| 2026-04-29 18:38 | 33.54976 | -118.23344 | 5710 ft | 249 kts | 69° |
| 2026-04-29 18:38 | 33.55594 | -118.21418 | 5457 ft | 245 kts | 69° |
| 2026-04-29 18:39 | 33.56191 | -118.19554 | 5203 ft | 234 kts | 69° |
| 2026-04-29 18:39 | 33.56753 | -118.17794 | 4974 ft | 224 kts | 69° |
| 2026-04-29 18:39 | 33.57299 | -118.16095 | 4802 ft | 213 kts | 69° |
| 2026-04-29 18:39 | 33.57822 | -118.14466 | 4629 ft | 208 kts | 69° |
| 2026-04-29 18:40 | 33.58347 | -118.12829 | 4488 ft | 211 kts | 69° |
| 2026-04-29 18:40 | 33.58875 | -118.11184 | 4352 ft | 210 kts | 69° |
| 2026-04-29 18:40 | 33.59397 | -118.09555 | 4173 ft | 209 kts | 69° |
| 2026-04-29 18:40 | 33.59983 | -118.07970 | 4020 ft | 209 kts | 54° |
| 2026-04-29 18:41 | 33.63346 | -118.05088 | 3884 ft | 200 kts | 33° |
| 2026-04-29 18:41 | 33.64533 | -118.04235 | 3721 ft | 202 kts | 32° |
| 2026-04-29 18:42 | 33.65739 | -118.03376 | 3526 ft | 200 kts | 32° |
| 2026-04-29 18:42 | 33.66920 | -118.02532 | 3302 ft | 193 kts | 32° |
| 2026-04-29 18:42 | 33.68062 | -118.01717 | 3213 ft | 190 kts | 30° |
| 2026-04-29 18:42 | 33.69328 | -118.01412 | 3063 ft | 187 kts | 346° |
| 2026-04-29 18:43 | 33.70470 | -118.02059 | 2911 ft | 181 kts | 332° |
| 2026-04-29 18:43 | 33.71498 | -118.02887 | 2682 ft | 175 kts | 321° |
| 2026-04-29 18:43 | 33.72421 | -118.03828 | 2442 ft | 173 kts | 315° |
| 2026-04-29 18:43 | 33.73265 | -118.04825 | 2218 ft | 168 kts | 313° |
| 2026-04-29 18:44 | 33.74072 | -118.05805 | 1994 ft | 163 kts | 312° |
| 2026-04-29 18:44 | 33.74870 | -118.06775 | 1787 ft | 164 kts | 313° |
| 2026-04-29 18:44 | 33.75673 | -118.07750 | 1553 ft | 164 kts | 314° |
| 2026-04-29 18:44 | 33.76488 | -118.08737 | 1324 ft | 166 kts | 314° |
| 2026-04-29 18:45 | 33.77279 | -118.09695 | 1108 ft | 164 kts | 313° |
| 2026-04-29 18:45 | 33.78046 | -118.10625 | 895 ft | 148 kts | 313° |
| 2026-04-29 18:45 | 33.78745 | -118.11474 | 661 ft | 139 kts | 313° |
| 2026-04-29 18:45 | 33.79436 | -118.12292 | 424 ft | 141 kts | 314° |
| 2026-04-29 18:46 | 33.80125 | -118.13123 | 291 ft | 139 kts | 313° |
| 2026-04-29 18:46 | 33.80787 | -118.13929 | 124 ft | 132 kts | 311° |
| 2026-04-29 18:46 | 33.81420 | -118.14703 | 41 ft | 122 kts | 311° |
| 2026-04-29 18:46 | 33.81894 | -118.15274 | 40 ft | 66 kts | 314° |
| 2026-04-29 18:47 | 33.82092 | -118.15516 | 38 ft | 21 kts | 315° |
| 2026-04-29 18:47 | 33.82161 | -118.15480 | 42 ft | 14 kts | 88° |
| 2026-04-29 18:47 | 33.82164 | -118.15367 | 42 ft | 13 kts | 88° |
| 2026-04-29 18:47 | 33.82164 | -118.15257 | 41 ft | 14 kts | 90° |
| 2026-04-29 18:48 | 33.82164 | -118.15147 | 41 ft | 13 kts | 90° |
| 2026-04-29 18:48 | 33.82163 | -118.15041 | 43 ft | 13 kts | 90° |
| 2026-04-29 18:48 | 33.82162 | -118.14922 | 44 ft | 15 kts | 90° |
| 2026-04-29 18:48 | 33.82136 | -118.14802 | 41 ft | 16 kts | 159° |
| 2026-04-29 18:49 | 33.82026 | -118.14799 | 46 ft | 16 kts | 179° |
| 2026-04-29 18:49 | 33.81920 | -118.14799 | 46 ft | 15 kts | 180° |
| 2026-04-29 18:49 | 33.81819 | -118.14796 | 46 ft | 13 kts | 167° |
| 2026-04-29 18:49 | 33.81781 | -118.14705 | 43 ft | 13 kts | 155° |
| 2026-04-29 18:50 | 33.81739 | -118.14663 | 45 ft | 0 kts | 85° |
| 2026-04-29 18:50 | 33.81739 | -118.14640 | 45 ft | 8 kts | 90° |
| 2026-04-29 18:51 | 33.81739 | -118.14608 | 46 ft | 1 kts | 90° |
| 2026-04-29 18:51 | 33.81739 | -118.14605 | 46 ft | 0 kts | 89° |